createdAt,value
2023-01-11T00:01:15.407Z,62.75
2023-01-11T00:05:18.345Z,62.86
2023-01-11T00:09:18.783Z,62.39
2023-01-11T00:13:19.180Z,62.11
2023-01-11T00:17:19.581Z,62.16
2023-01-11T00:21:22.349Z,62.42
2023-01-11T00:25:22.683Z,62.44
2023-01-11T00:29:22.770Z,62.54
2023-01-11T00:33:22.874Z,62.44
2023-01-11T00:37:25.496Z,61.69
2023-01-11T00:41:48.107Z,61.82
2023-01-11T00:46:00.845Z,62.03
2023-01-11T00:50:01.191Z,61.93
2023-01-11T00:54:03.822Z,61.93
2023-01-11T00:58:05.110Z,61.91
2023-01-11T01:02:05.462Z,61.86
2023-01-11T01:06:05.524Z,61.79
2023-01-11T01:10:12.532Z,62.19
2023-01-11T01:14:30.015Z,61.31
2023-01-11T01:18:30.124Z,61.89
2023-01-11T01:22:30.195Z,61.51
2023-01-11T01:26:32.859Z,61.71
2023-01-11T01:30:33.840Z,61.47
2023-01-11T01:34:37.461Z,61.21
2023-01-11T01:38:38.063Z,61.42
2023-01-11T01:42:40.758Z,61.38
2023-01-11T01:46:40.825Z,61.56
2023-01-11T01:50:48.218Z,61.62
2023-01-11T01:54:52.056Z,62.01
2023-01-11T01:59:01.375Z,62.39
2023-01-11T02:03:04.629Z,62.88
2023-01-11T02:07:12.130Z,62.95
2023-01-11T02:11:29.648Z,62.31
2023-01-11T02:15:32.964Z,62.63
2023-01-11T02:19:54.157Z,63.76
2023-01-11T02:24:30.065Z,63.73
2023-01-11T02:28:41.499Z,63.66
2023-01-11T02:32:57.129Z,63.84
2023-01-11T02:37:14.247Z,63.41
2023-01-11T02:41:48.955Z,63.59
2023-01-11T02:46:02.140Z,64.17
2023-01-11T02:50:11.662Z,64.98
2023-01-11T02:54:17.296Z,65.25
2023-01-11T02:58:22.625Z,65.48
2023-01-11T03:02:25.428Z,65.59
2023-01-11T03:06:30.215Z,66.40
2023-01-11T03:10:47.352Z,66.23
2023-01-11T03:15:06.617Z,65.77
2023-01-11T03:19:29.231Z,65.34
2023-01-11T03:23:39.365Z,65.31
2023-01-11T03:27:49.509Z,65.17
2023-01-11T03:32:01.120Z,65.29
2023-01-11T03:36:13.986Z,64.98
2023-01-11T03:40:21.976Z,64.11
2023-01-11T03:44:23.768Z,65.04
2023-01-11T03:48:30.769Z,65.83
2023-01-11T03:52:41.580Z,65.98
2023-01-11T03:56:53.516Z,66.49
2023-01-11T04:00:54.666Z,66.01
2023-01-11T04:04:55.493Z,65.55
2023-01-11T04:08:58.141Z,65.40
2023-01-11T04:12:58.148Z,65.55
2023-01-11T04:16:58.227Z,65.63
2023-01-11T04:20:58.422Z,65.13
2023-01-11T04:25:01.099Z,65.26
2023-01-11T04:29:01.149Z,65.25
2023-01-11T04:33:02.140Z,65.89
2023-01-11T04:37:02.206Z,65.44
2023-01-11T04:41:17.576Z,65.31
2023-01-11T04:45:18.090Z,65.30
2023-01-11T04:49:18.677Z,65.27
2023-01-11T04:53:18.727Z,65.46
2023-01-11T04:57:22.641Z,65.26
2023-01-11T05:01:23.210Z,65.18
2023-01-11T05:05:23.343Z,64.94
2023-01-11T05:09:23.885Z,65.12
2023-01-11T05:13:41.688Z,64.72
2023-01-11T05:17:41.791Z,64.66
2023-01-11T05:21:44.259Z,64.50
2023-01-11T05:25:44.350Z,64.15
2023-01-11T05:29:47.053Z,63.67
2023-01-11T05:33:47.831Z,63.98
2023-01-11T05:37:47.973Z,64.29
2023-01-11T05:41:48.243Z,64.19
2023-01-11T05:45:51.097Z,64.79
2023-01-11T05:49:51.193Z,64.93
2023-01-11T05:53:51.643Z,64.56
2023-01-11T05:57:52.004Z,64.81
2023-01-11T06:01:54.653Z,64.45
2023-01-11T06:05:56.059Z,64.49
2023-01-11T06:09:56.327Z,64.65
2023-01-11T06:13:56.398Z,64.44
2023-01-11T06:17:59.058Z,64.46
2023-01-11T06:21:59.117Z,64.29
2023-01-11T06:26:00.496Z,64.62
2023-01-11T06:30:00.636Z,64.51
2023-01-11T06:34:03.283Z,64.59
2023-01-11T06:38:03.498Z,64.45
2023-01-11T06:42:03.562Z,65.20
2023-01-11T06:46:03.883Z,64.96
2023-01-11T06:50:07.333Z,65.20
2023-01-11T06:54:07.477Z,66.24
2023-01-11T06:58:07.753Z,65.80
2023-01-11T07:02:08.631Z,65.65
2023-01-11T07:06:11.465Z,65.49
2023-01-11T07:10:16.123Z,65.81
2023-01-11T07:14:20.126Z,66.10
2023-01-11T07:18:21.019Z,65.93
2023-01-11T07:22:23.949Z,65.64
2023-01-11T07:26:26.487Z,65.81
2023-01-11T07:30:27.427Z,65.54
2023-01-11T07:34:27.544Z,66.03
2023-01-11T07:38:31.379Z,66.02
2023-01-11T07:42:43.906Z,66.14
2023-01-11T07:46:44.137Z,65.78
2023-01-11T07:50:45.454Z,65.85
2023-01-11T07:54:48.215Z,66.09
2023-01-11T07:58:48.321Z,66.91
2023-01-11T08:02:48.416Z,66.19
2023-01-11T08:06:48.592Z,65.93
2023-01-11T08:11:12.656Z,65.89
2023-01-11T08:15:14.194Z,65.51
2023-01-11T08:19:14.277Z,65.18
2023-01-11T08:23:14.408Z,65.31
2023-01-11T08:27:17.089Z,65.12
2023-01-11T08:31:17.294Z,65.29
2023-01-11T08:35:17.653Z,64.80
2023-01-11T08:39:17.777Z,64.62
2023-01-11T08:43:20.481Z,64.14
2023-01-11T08:47:20.580Z,64.02
2023-01-11T08:51:20.877Z,64.12
2023-01-11T08:55:21.263Z,63.96
2023-01-11T08:59:24.744Z,64.06
2023-01-11T09:03:24.818Z,64.60
2023-01-11T09:07:24.921Z,64.57
2023-01-11T09:11:37.816Z,63.27
2023-01-11T09:15:40.560Z,63.84
2023-01-11T09:19:40.734Z,63.84
2023-01-11T09:23:40.804Z,64.46
2023-01-11T09:27:40.902Z,64.71
2023-01-11T09:31:43.947Z,65.32
2023-01-11T09:35:46.284Z,65.15
2023-01-11T09:39:46.860Z,65.12
2023-01-11T09:43:59.347Z,64.43
2023-01-11T09:48:12.672Z,64.58
2023-01-11T09:52:29.063Z,64.60
2023-01-11T09:56:41.705Z,63.50
2023-01-11T10:01:01.158Z,62.53
2023-01-11T10:05:51.487Z,61.72
2023-01-11T10:18:34.253Z,61.48
2023-01-11T10:19:36.560Z,61.69
2023-01-11T10:23:53.645Z,60.94
2023-01-11T10:28:00.872Z,60.54
2023-01-11T10:32:32.276Z,61.10
2023-01-11T10:36:57.899Z,61.13
2023-01-11T10:41:15.856Z,61.80
2023-01-11T10:45:25.471Z,60.34
2023-01-11T10:49:44.038Z,60.36
2023-01-11T10:53:59.869Z,59.89
2023-01-11T10:58:18.533Z,58.83
2023-01-11T11:02:40.040Z,58.25
2023-01-11T11:06:50.498Z,57.61
2023-01-11T11:11:01.150Z,58.82
2023-01-11T11:15:15.644Z,58.43
2023-01-11T11:19:25.340Z,59.20
2023-01-11T11:23:28.828Z,59.96
2023-01-11T11:27:35.698Z,59.94
2023-01-11T11:31:43.977Z,60.25
2023-01-11T11:35:46.804Z,60.62
2023-01-11T11:39:51.438Z,61.81
2023-01-11T11:43:51.547Z,62.13
2023-01-11T11:48:09.282Z,62.40
2023-01-11T11:52:14.959Z,62.49
2023-01-11T11:56:24.168Z,63.30
2023-01-11T12:00:30.883Z,62.74
2023-01-11T12:04:49.107Z,63.24
2023-01-11T12:08:49.290Z,63.80
2023-01-11T12:12:56.354Z,64.05
2023-01-11T12:16:56.542Z,63.88
2023-01-11T12:20:59.464Z,64.89
2023-01-11T12:25:25.014Z,64.57
2023-01-11T12:29:52.455Z,65.21
2023-01-11T12:34:03.494Z,64.92
2023-01-11T12:38:33.750Z,64.91
2023-01-11T12:42:58.050Z,64.78
2023-01-11T12:47:27.971Z,64.92
2023-01-11T12:51:53.297Z,65.61
2023-01-11T12:56:22.806Z,65.94
2023-01-11T13:00:46.753Z,66.27
2023-01-11T13:05:12.078Z,66.12
2023-01-11T13:09:29.646Z,66.61
2023-01-11T13:13:47.138Z,65.97
2023-01-11T13:17:56.416Z,66.21
2023-01-11T13:21:59.621Z,66.39
2023-01-11T13:26:07.811Z,65.83
2023-01-11T13:30:17.978Z,65.06
2023-01-11T13:34:28.251Z,64.95
2023-01-11T13:38:42.028Z,66.68
2023-01-11T13:42:49.483Z,66.62
2023-01-11T13:47:05.455Z,65.92
2023-01-11T13:51:18.763Z,66.33
2023-01-11T13:55:26.849Z,65.70
2023-01-11T13:59:37.110Z,65.58
2023-01-11T14:03:50.911Z,66.22
2023-01-11T14:08:25.818Z,66.50
2023-01-11T14:12:45.564Z,67.14
2023-01-11T14:17:13.131Z,67.03
2023-01-11T14:21:28.311Z,67.43
2023-01-11T14:25:35.367Z,67.38
2023-01-11T14:30:26.684Z,67.70
2023-01-11T14:35:02.678Z,67.57
2023-01-11T14:39:56.479Z,68.51
2023-01-11T14:44:26.183Z,68.51
2023-01-11T14:48:44.251Z,68.46
2023-01-11T14:52:48.312Z,68.06
2023-01-11T14:56:56.612Z,68.38
2023-01-11T15:01:14.882Z,67.58
2023-01-11T15:05:36.790Z,67.88
2023-01-11T15:09:49.702Z,68.50
2023-01-11T15:13:58.050Z,68.02
2023-01-11T15:18:18.910Z,67.90
2023-01-11T15:22:35.465Z,67.96
2023-01-11T15:26:50.582Z,68.49
2023-01-11T15:30:55.396Z,68.29
2023-01-11T15:35:20.093Z,67.48
2023-01-11T15:39:31.587Z,68.30
2023-01-11T15:44:03.864Z,67.58
2023-01-11T15:48:22.901Z,67.93
2023-01-11T15:53:00.097Z,67.45
2023-01-11T15:57:46.383Z,66.74
2023-01-11T16:02:26.364Z,66.67
2023-01-11T16:06:41.073Z,66.13
2023-01-11T16:11:18.054Z,66.42
2023-01-11T16:15:40.954Z,65.90
2023-01-11T16:19:41.169Z,65.81
2023-01-11T16:23:43.371Z,65.47
2023-01-11T16:27:48.986Z,66.37
2023-01-11T16:32:01.643Z,66.38
2023-01-11T16:36:13.337Z,66.13
2023-01-11T16:40:19.277Z,66.20
2023-01-11T16:44:36.461Z,66.22
2023-01-11T16:48:36.517Z,66.55
2023-01-11T16:52:49.433Z,67.51
2023-01-11T16:56:51.774Z,67.87
2023-01-11T17:01:02.058Z,67.18
2023-01-11T17:05:02.161Z,67.38
2023-01-11T17:09:16.333Z,67.28
2023-01-11T17:13:57.351Z,66.68
2023-01-11T17:18:05.512Z,66.56
2023-01-11T17:22:10.082Z,65.94
2023-01-11T17:26:18.884Z,66.19
2023-01-11T17:30:23.137Z,65.80
2023-01-11T17:34:32.379Z,66.08
2023-01-11T17:38:34.053Z,66.16
2023-01-11T17:42:46.792Z,66.56
2023-01-11T17:46:48.587Z,65.92
2023-01-11T17:50:58.586Z,65.03
2023-01-11T17:55:14.398Z,64.00
2023-01-11T17:59:25.225Z,63.92
2023-01-11T18:03:25.553Z,64.46
2023-01-11T18:07:28.299Z,63.96
2023-01-11T18:11:32.545Z,64.98
2023-01-11T18:15:37.161Z,64.75
2023-01-11T18:19:42.785Z,65.35
2023-01-11T18:23:48.538Z,65.11
2023-01-11T18:27:49.640Z,65.74
2023-01-11T18:31:49.874Z,65.17
2023-01-11T18:35:53.380Z,64.92
2023-01-11T18:39:57.535Z,65.88
2023-01-11T18:43:59.546Z,64.90
2023-01-11T18:47:59.617Z,65.48
2023-01-11T18:51:59.663Z,65.57
2023-01-11T18:56:02.367Z,65.91
2023-01-11T19:00:02.392Z,65.83
2023-01-11T19:04:02.970Z,65.17
2023-01-11T19:08:03.006Z,65.48
2023-01-11T19:12:05.645Z,65.58
2023-01-11T19:16:05.827Z,65.05
2023-01-11T19:20:09.186Z,65.93
2023-01-11T19:24:09.884Z,66.22
2023-01-11T19:28:12.569Z,65.62
2023-01-11T19:32:12.719Z,66.47
2023-01-11T19:36:14.037Z,66.37
2023-01-11T19:40:15.674Z,65.77
2023-01-11T19:44:18.331Z,64.78
2023-01-11T19:48:18.396Z,65.25
2023-01-11T19:52:21.752Z,64.01
2023-01-11T19:56:21.823Z,62.38
2023-01-11T20:00:25.284Z,61.76
2023-01-11T20:04:26.865Z,62.75
2023-01-11T20:08:26.915Z,62.11
2023-01-11T20:12:27.552Z,62.44
2023-01-11T20:16:30.231Z,62.27
2023-01-11T20:20:30.328Z,62.48
2023-01-11T20:24:30.963Z,61.96
2023-01-11T20:28:31.782Z,61.94
2023-01-11T20:32:41.760Z,61.64
2023-01-11T20:36:42.720Z,61.60
2023-01-11T20:40:42.914Z,60.37
2023-01-11T20:44:43.118Z,60.39
2023-01-11T20:48:45.772Z,60.72
2023-01-11T20:52:45.855Z,59.88
2023-01-11T20:56:46.655Z,60.47
2023-01-11T21:00:46.685Z,61.55
2023-01-11T21:04:49.394Z,60.57
2023-01-11T21:08:49.472Z,60.08
2023-01-11T21:12:52.014Z,60.30
2023-01-11T21:16:54.922Z,59.64
2023-01-11T21:20:57.510Z,59.50
2023-01-11T21:24:57.919Z,60.10
2023-01-11T21:29:01.037Z,60.05
2023-01-11T21:33:01.175Z,59.52
2023-01-11T21:37:03.768Z,59.59
2023-01-11T21:41:09.039Z,60.25
2023-01-11T21:45:11.299Z,60.15
2023-01-11T21:49:11.639Z,60.01
2023-01-11T21:53:14.264Z,59.79
2023-01-11T21:57:14.357Z,60.16
2023-01-11T22:01:16.245Z,59.94
2023-01-11T22:05:16.593Z,58.92
2023-01-11T22:09:20.260Z,58.49
2023-01-11T22:13:20.325Z,57.76
2023-01-11T22:17:20.764Z,58.13
2023-01-11T22:21:22.047Z,58.12
2023-01-11T22:25:24.731Z,57.86
2023-01-11T22:29:24.753Z,57.86
2023-01-11T22:33:25.463Z,57.99
2023-01-11T22:37:25.507Z,57.87
2023-01-11T22:41:29.144Z,58.26
2023-01-11T22:45:29.178Z,58.40
2023-01-11T22:49:29.698Z,58.79
2023-01-11T22:53:29.789Z,58.60
2023-01-11T22:57:32.472Z,57.89
2023-01-11T23:01:34.847Z,57.67
2023-01-11T23:05:35.121Z,57.77
2023-01-11T23:09:35.268Z,57.03
2023-01-11T23:13:50.368Z,57.57
2023-01-11T23:17:50.499Z,57.13
2023-01-11T23:21:50.889Z,56.62
2023-01-11T23:25:50.943Z,56.18
2023-01-11T23:29:53.580Z,56.17
2023-01-11T23:33:56.735Z,55.71
2023-01-11T23:37:57.532Z,56.33
2023-01-11T23:42:10.166Z,56.70
2023-01-11T23:46:25.063Z,57.22
2023-01-11T23:50:25.080Z,57.50
2023-01-11T23:54:28.130Z,57.26
2023-01-11T23:58:28.149Z,57.41
